sensor_id;sensor_type;location;lat;lon;timestamp;pressure;altitude;pressure_sealevel;temperature;humidity
40982;BME280;26708;50.304;19.028;2023-06-26T00:00:26;98120.88;;;17.83;51.90
40982;BME280;26708;50.304;19.028;2023-06-26T00:02:31;98327.38;;;19.01;51.89
40982;BME280;26708;50.304;19.028;2023-06-26T00:04:38;98254.53;;;18.43;52.29
40982;BME280;26708;50.304;19.028;2023-06-26T00:06:44;98402.22;;;19.32;52.42
40982;BME280;26708;50.304;19.028;2023-06-26T00:08:48;98390.16;;;19.23;52.47
40982;BME280;26708;50.304;19.028;2023-06-26T00:10:52;98412.03;;;19.30;52.52
40982;BME280;26708;50.304;19.028;2023-06-26T00:12:58;98368.31;;;18.94;52.75
40982;BME280;26708;50.304;19.028;2023-06-26T00:15:04;98271.06;;;18.50;52.64
40982;BME280;26708;50.304;19.028;2023-06-26T00:17:09;98241.50;;;18.14;52.69
40982;BME280;26708;50.304;19.028;2023-06-26T00:19:14;98326.88;;;18.68;52.86
40982;BME280;26708;50.304;19.028;2023-06-26T00:21:21;98250.84;;;18.24;52.81
40982;BME280;26708;50.304;19.028;2023-06-26T00:23:26;98331.41;;;18.66;53.04
40982;BME280;26708;50.304;19.028;2023-06-26T00:25:33;98296.50;;;18.55;53.07
40982;BME280;26708;50.304;19.028;2023-06-26T00:27:37;98275.97;;;18.37;53.08
40982;BME280;26708;50.304;19.028;2023-06-26T00:29:42;98404.00;;;19.08;53.35
40982;BME280;26708;50.304;19.028;2023-06-26T00:31:47;98144.84;;;17.55;53.32
40982;BME280;26708;50.304;19.028;2023-06-26T00:33:51;98378.38;;;18.86;53.60
40982;BME280;26708;50.304;19.028;2023-06-26T00:35:59;98269.66;;;18.17;53.55
40982;BME280;26708;50.304;19.028;2023-06-26T00:38:09;98404.59;;;18.93;53.68
40982;BME280;26708;50.304;19.028;2023-06-26T00:40:13;98399.38;;;18.92;53.85
40982;BME280;26708;50.304;19.028;2023-06-26T00:42:18;98360.78;;;18.60;53.77
40982;BME280;26708;50.304;19.028;2023-06-26T00:44:24;98145.41;;;17.40;53.91
40982;BME280;26708;50.304;19.028;2023-06-26T00:46:28;98162.91;;;17.44;53.89
40982;BME280;26708;50.304;19.028;2023-06-26T00:48:33;98395.41;;;18.80;54.12
40982;BME280;26708;50.304;19.028;2023-06-26T00:50:39;98393.75;;;18.76;54.31
40982;BME280;26708;50.304;19.028;2023-06-26T00:52:45;98143.25;;;17.27;54.41
40982;BME280;26708;50.304;19.028;2023-06-26T00:54:53;98360.34;;;18.49;54.44
40982;BME280;26708;50.304;19.028;2023-06-26T00:57:01;98272.91;;;18.00;54.58
40982;BME280;26708;50.304;19.028;2023-06-26T00:59:09;98395.09;;;18.65;54.65
40982;BME280;26708;50.304;19.028;2023-06-26T01:01:18;98101.38;;;16.90;54.59
40982;BME280;26708;50.304;19.028;2023-06-26T01:03:28;98394.41;;;18.60;54.60
40982;BME280;26708;50.304;19.028;2023-06-26T01:05:36;98268.06;;;17.65;54.76
40982;BME280;26708;50.304;19.028;2023-06-26T01:07:46;98340.66;;;18.32;54.61
40982;BME280;26708;50.304;19.028;2023-06-26T01:09:56;98236.63;;;17.56;54.69
40982;BME280;26708;50.304;19.028;2023-06-26T01:12:01;98220.09;;;17.48;54.64
40982;BME280;26708;50.304;19.028;2023-06-26T01:14:06;98175.53;;;17.36;54.75
40982;BME280;26708;50.304;19.028;2023-06-26T01:16:12;98238.75;;;17.70;54.47
40982;BME280;26708;50.304;19.028;2023-06-26T01:18:21;98233.47;;;17.70;54.61
40982;BME280;26708;50.304;19.028;2023-06-26T01:20:27;98379.56;;;18.54;54.50
40982;BME280;26708;50.304;19.028;2023-06-26T01:22:45;98201.31;;;17.31;54.51
40982;BME280;26708;50.304;19.028;2023-06-26T01:25:09;98195.31;;;17.26;54.57
40982;BME280;26708;50.304;19.028;2023-06-26T01:27:25;98199.09;;;17.44;54.73
40982;BME280;26708;50.304;19.028;2023-06-26T01:29:33;98378.16;;;18.46;54.45
40982;BME280;26708;50.304;19.028;2023-06-26T01:31:39;98197.16;;;17.24;54.38
40982;BME280;26708;50.304;19.028;2023-06-26T01:33:47;98268.16;;;17.62;54.58
40982;BME280;26708;50.304;19.028;2023-06-26T01:35:56;98372.25;;;18.38;54.44
40982;BME280;26708;50.304;19.028;2023-06-26T01:38:13;98313.53;;;18.01;54.68
40982;BME280;26708;50.304;19.028;2023-06-26T01:40:19;98354.19;;;18.24;54.52
40982;BME280;26708;50.304;19.028;2023-06-26T01:42:27;98361.91;;;18.30;54.81
40982;BME280;26708;50.304;19.028;2023-06-26T01:44:37;98222.41;;;17.33;54.74
40982;BME280;26708;50.304;19.028;2023-06-26T01:46:58;98298.06;;;17.89;55.01
40982;BME280;26708;50.304;19.028;2023-06-26T01:49:12;98316.94;;;18.04;54.95
40982;BME280;26708;50.304;19.028;2023-06-26T01:51:30;98355.84;;;18.27;54.77
40982;BME280;26708;50.304;19.028;2023-06-26T01:53:47;98051.75;;;16.48;54.79
40982;BME280;26708;50.304;19.028;2023-06-26T01:56:01;98353.25;;;18.25;55.00
40982;BME280;26708;50.304;19.028;2023-06-26T01:58:14;98095.38;;;16.59;54.87
40982;BME280;26708;50.304;19.028;2023-06-26T02:00:21;98358.41;;;18.30;54.98
40982;BME280;26708;50.304;19.028;2023-06-26T02:02:29;98358.41;;;18.30;55.00
40982;BME280;26708;50.304;19.028;2023-06-26T02:04:34;98299.44;;;17.76;54.96
40982;BME280;26708;50.304;19.028;2023-06-26T02:06:38;98195.78;;;17.37;54.80
40982;BME280;26708;50.304;19.028;2023-06-26T02:08:43;98356.66;;;18.29;54.82
40982;BME280;26708;50.304;19.028;2023-06-26T02:10:48;98352.28;;;18.28;54.85
40982;BME280;26708;50.304;19.028;2023-06-26T02:12:52;98387.59;;;18.28;54.88
40982;BME280;26708;50.304;19.028;2023-06-26T02:15:01;98293.53;;;17.92;54.72
40982;BME280;26708;50.304;19.028;2023-06-26T02:17:08;98355.22;;;18.20;54.84
40982;BME280;26708;50.304;19.028;2023-06-26T02:19:13;98353.91;;;18.07;54.77
40982;BME280;26708;50.304;19.028;2023-06-26T02:21:23;98336.28;;;18.06;54.85
40982;BME280;26708;50.304;19.028;2023-06-26T02:23:31;98267.09;;;17.68;54.93
40982;BME280;26708;50.304;19.028;2023-06-26T02:25:35;98151.41;;;16.96;55.03
40982;BME280;26708;50.304;19.028;2023-06-26T02:27:41;98324.63;;;17.87;54.99
40982;BME280;26708;50.304;19.028;2023-06-26T02:29:48;98119.94;;;16.63;55.13
40982;BME280;26708;50.304;19.028;2023-06-26T02:31:55;98234.72;;;17.34;55.22
40982;BME280;26708;50.304;19.028;2023-06-26T02:34:01;98171.97;;;16.88;55.33
40982;BME280;26708;50.304;19.028;2023-06-26T02:36:08;98142.41;;;16.77;55.52
40982;BME280;26708;50.304;19.028;2023-06-26T02:38:15;98362.03;;;18.03;55.39
40982;BME280;26708;50.304;19.028;2023-06-26T02:40:22;98349.88;;;17.97;55.30
40982;BME280;26708;50.304;19.028;2023-06-26T02:42:28;98286.00;;;17.56;55.48
40982;BME280;26708;50.304;19.028;2023-06-26T02:44:32;98231.16;;;17.10;55.62
40982;BME280;26708;50.304;19.028;2023-06-26T02:46:38;98297.28;;;17.62;55.26
40982;BME280;26708;50.304;19.028;2023-06-26T02:48:48;98346.63;;;17.89;55.63
40982;BME280;26708;50.304;19.028;2023-06-26T02:50:53;98136.72;;;16.62;55.35
40982;BME280;26708;50.304;19.028;2023-06-26T02:53:03;98185.78;;;16.96;55.28
40982;BME280;26708;50.304;19.028;2023-06-26T02:55:08;98238.44;;;17.28;55.35
40982;BME280;26708;50.304;19.028;2023-06-26T02:57:13;98376.16;;;18.03;55.27
40982;BME280;26708;50.304;19.028;2023-06-26T02:59:19;98206.06;;;16.96;55.17
40982;BME280;26708;50.304;19.028;2023-06-26T03:01:24;98357.56;;;18.05;55.38
40982;BME280;26708;50.304;19.028;2023-06-26T03:03:28;98355.81;;;18.04;55.45
40982;BME280;26708;50.304;19.028;2023-06-26T03:05:48;98150.09;;;16.83;55.25
40982;BME280;26708;50.304;19.028;2023-06-26T03:07:52;98259.81;;;17.48;55.39
40982;BME280;26708;50.304;19.028;2023-06-26T03:09:57;98361.97;;;18.04;55.45
40982;BME280;26708;50.304;19.028;2023-06-26T03:12:03;98356.56;;;18.07;55.56
40982;BME280;26708;50.304;19.028;2023-06-26T03:14:09;98326.25;;;17.91;55.79
40982;BME280;26708;50.304;19.028;2023-06-26T03:16:14;98197.78;;;17.06;55.58
40982;BME280;26708;50.304;19.028;2023-06-26T03:18:19;98309.91;;;17.79;55.89
40982;BME280;26708;50.304;19.028;2023-06-26T03:20:24;98213.03;;;17.24;56.05
40982;BME280;26708;50.304;19.028;2023-06-26T03:22:33;98255.28;;;17.26;56.25
40982;BME280;26708;50.304;19.028;2023-06-26T03:24:38;98358.63;;;17.99;56.27
40982;BME280;26708;50.304;19.028;2023-06-26T03:26:43;98362.16;;;18.00;56.71
40982;BME280;26708;50.304;19.028;2023-06-26T03:28:47;98273.84;;;17.50;56.72
40982;BME280;26708;50.304;19.028;2023-06-26T03:30:52;98099.31;;;16.48;56.70
40982;BME280;26708;50.304;19.028;2023-06-26T03:32:57;98338.19;;;17.78;56.88
40982;BME280;26708;50.304;19.028;2023-06-26T03:35:02;98151.00;;;16.82;56.76
40982;BME280;26708;50.304;19.028;2023-06-26T03:37:08;98112.09;;;16.61;56.94
40982;BME280;26708;50.304;19.028;2023-06-26T03:39:15;98163.91;;;16.91;56.91
40982;BME280;26708;50.304;19.028;2023-06-26T03:41:20;98374.19;;;18.08;57.04
40982;BME280;26708;50.304;19.028;2023-06-26T03:43:26;98337.06;;;17.85;57.17
40982;BME280;26708;50.304;19.028;2023-06-26T03:45:42;98113.56;;;16.68;57.13
40982;BME280;26708;50.304;19.028;2023-06-26T03:47:47;98148.75;;;16.96;57.28
40982;BME280;26708;50.304;19.028;2023-06-26T03:49:53;98178.47;;;17.29;56.89
40982;BME280;26708;50.304;19.028;2023-06-26T03:51:57;98220.91;;;17.50;56.39
40982;BME280;26708;50.304;19.028;2023-06-26T03:54:02;98256.56;;;17.89;56.12
40982;BME280;26708;50.304;19.028;2023-06-26T03:56:11;98217.00;;;17.85;55.93
40982;BME280;26708;50.304;19.028;2023-06-26T03:58:15;98174.50;;;17.65;55.54
40982;BME280;26708;50.304;19.028;2023-06-26T04:00:21;98153.34;;;17.65;55.29
40982;BME280;26708;50.304;19.028;2023-06-26T04:02:27;98378.72;;;19.00;54.66
40982;BME280;26708;50.304;19.028;2023-06-26T04:04:31;98372.97;;;19.10;54.47
40982;BME280;26708;50.304;19.028;2023-06-26T04:06:36;98215.09;;;18.36;54.13
40982;BME280;26708;50.304;19.028;2023-06-26T04:08:41;98318.59;;;18.99;53.91
40982;BME280;26708;50.304;19.028;2023-06-26T04:10:49;98117.34;;;17.82;53.96
40982;BME280;26708;50.304;19.028;2023-06-26T04:12:57;98082.97;;;17.59;53.52
40982;BME280;26708;50.304;19.028;2023-06-26T04:15:02;98367.69;;;19.32;53.62
40982;BME280;26708;50.304;19.028;2023-06-26T04:17:07;98301.06;;;18.95;53.96
40982;BME280;26708;50.304;19.028;2023-06-26T04:19:12;98144.06;;;17.99;53.52
40982;BME280;26708;50.304;19.028;2023-06-26T04:21:18;98079.03;;;17.69;53.18
40982;BME280;26708;50.304;19.028;2023-06-26T04:23:25;98182.16;;;18.18;53.32
40982;BME280;26708;50.304;19.028;2023-06-26T04:25:29;98225.78;;;18.31;53.55
40982;BME280;26708;50.304;19.028;2023-06-26T04:27:34;98360.59;;;19.32;53.83
40982;BME280;26708;50.304;19.028;2023-06-26T04:29:41;98336.75;;;19.09;53.69
40982;BME280;26708;50.304;19.028;2023-06-26T04:31:46;98311.22;;;19.07;53.55
40982;BME280;26708;50.304;19.028;2023-06-26T04:33:51;98294.72;;;18.99;53.37
40982;BME280;26708;50.304;19.028;2023-06-26T04:35:56;98226.44;;;18.61;53.83
40982;BME280;26708;50.304;19.028;2023-06-26T04:38:03;98118.38;;;18.01;53.67
40982;BME280;26708;50.304;19.028;2023-06-26T04:40:10;98290.50;;;18.93;54.12
40982;BME280;26708;50.304;19.028;2023-06-26T04:42:15;98240.53;;;18.61;53.99
40982;BME280;26708;50.304;19.028;2023-06-26T04:44:20;98231.13;;;18.76;53.67
40982;BME280;26708;50.304;19.028;2023-06-26T04:46:28;98215.69;;;18.42;53.37
40982;BME280;26708;50.304;19.028;2023-06-26T04:48:32;98364.66;;;19.41;53.78
40982;BME280;26708;50.304;19.028;2023-06-26T04:50:42;98248.13;;;18.70;54.08
40982;BME280;26708;50.304;19.028;2023-06-26T04:52:56;98308.75;;;19.02;54.32
40982;BME280;26708;50.304;19.028;2023-06-26T04:55:01;98357.78;;;19.37;54.32
40982;BME280;26708;50.304;19.028;2023-06-26T04:57:08;98176.38;;;18.30;54.13
40982;BME280;26708;50.304;19.028;2023-06-26T04:59:14;98362.34;;;19.33;54.36
40982;BME280;26708;50.304;19.028;2023-06-26T05:01:18;98342.91;;;19.11;54.54
40982;BME280;26708;50.304;19.028;2023-06-26T05:03:25;98367.28;;;19.42;54.59
40982;BME280;26708;50.304;19.028;2023-06-26T05:05:31;98228.91;;;18.65;54.71
40982;BME280;26708;50.304;19.028;2023-06-26T05:07:35;98366.63;;;19.57;53.90
40982;BME280;26708;50.304;19.028;2023-06-26T05:09:40;98150.47;;;18.38;53.05
40982;BME280;26708;50.304;19.028;2023-06-26T05:11:45;98365.38;;;19.66;52.60
40982;BME280;26708;50.304;19.028;2023-06-26T05:13:50;98287.03;;;19.14;52.75
40982;BME280;26708;50.304;19.028;2023-06-26T05:15:54;98369.31;;;19.77;53.59
40982;BME280;26708;50.304;19.028;2023-06-26T05:18:00;98299.03;;;19.44;52.88
40982;BME280;26708;50.304;19.028;2023-06-26T05:20:08;98330.66;;;19.70;53.23
40982;BME280;26708;50.304;19.028;2023-06-26T05:22:14;98365.72;;;20.00;52.80
40982;BME280;26708;50.304;19.028;2023-06-26T05:24:23;98312.13;;;19.69;51.95
40982;BME280;26708;50.304;19.028;2023-06-26T05:26:28;98383.56;;;20.16;51.64
40982;BME280;26708;50.304;19.028;2023-06-26T05:28:34;98205.97;;;19.27;51.74
40982;BME280;26708;50.304;19.028;2023-06-26T05:30:41;98292.88;;;19.84;51.10
40982;BME280;26708;50.304;19.028;2023-06-26T05:32:47;98296.00;;;19.93;51.40
40982;BME280;26708;50.304;19.028;2023-06-26T05:34:54;98347.81;;;20.23;50.75
40982;BME280;26708;50.304;19.028;2023-06-26T05:37:04;98167.34;;;19.20;50.88
40982;BME280;26708;50.304;19.028;2023-06-26T05:39:11;98206.25;;;19.41;50.87
40982;BME280;26708;50.304;19.028;2023-06-26T05:41:16;98223.13;;;19.79;50.71
40982;BME280;26708;50.304;19.028;2023-06-26T05:43:23;98289.59;;;20.17;50.52
40982;BME280;26708;50.304;19.028;2023-06-26T05:45:28;98350.34;;;20.44;50.39
40982;BME280;26708;50.304;19.028;2023-06-26T05:47:34;98361.78;;;20.66;50.25
40982;BME280;26708;50.304;19.028;2023-06-26T05:49:40;98363.31;;;20.72;50.11
40982;BME280;26708;50.304;19.028;2023-06-26T05:51:46;98300.97;;;20.39;49.75
40982;BME280;26708;50.304;19.028;2023-06-26T05:53:54;98167.81;;;19.68;50.14
40982;BME280;26708;50.304;19.028;2023-06-26T05:56:01;98373.94;;;20.90;49.61
40982;BME280;26708;50.304;19.028;2023-06-26T05:58:07;98139.53;;;19.67;49.37
40982;BME280;26708;50.304;19.028;2023-06-26T06:00:15;98233.47;;;20.05;49.47
40982;BME280;26708;50.304;19.028;2023-06-26T06:02:22;98348.47;;;21.03;49.68
40982;BME280;26708;50.304;19.028;2023-06-26T06:04:27;98357.69;;;21.15;49.46
40982;BME280;26708;50.304;19.028;2023-06-26T06:06:32;98240.03;;;20.53;48.68
40982;BME280;26708;50.304;19.028;2023-06-26T06:08:38;98231.41;;;20.48;48.58
40982;BME280;26708;50.304;19.028;2023-06-26T06:10:45;98334.22;;;21.04;48.90
40982;BME280;26708;50.304;19.028;2023-06-26T06:12:50;98263.44;;;20.65;48.54
40982;BME280;26708;50.304;19.028;2023-06-26T06:14:57;98147.06;;;20.15;48.18
40982;BME280;26708;50.304;19.028;2023-06-26T06:17:02;98291.75;;;21.03;48.01
40982;BME280;26708;50.304;19.028;2023-06-26T06:19:08;98282.00;;;21.02;47.08
40982;BME280;26708;50.304;19.028;2023-06-26T06:21:15;98228.41;;;20.74;47.18
40982;BME280;26708;50.304;19.028;2023-06-26T06:23:20;98269.63;;;21.01;46.72
40982;BME280;26708;50.304;19.028;2023-06-26T06:25:25;98313.34;;;21.32;46.93
40982;BME280;26708;50.304;19.028;2023-06-26T06:27:33;98138.13;;;20.34;47.07
40982;BME280;26708;50.304;19.028;2023-06-26T06:29:38;98345.34;;;21.66;47.11
40982;BME280;26708;50.304;19.028;2023-06-26T06:31:43;98279.44;;;21.36;46.96
40982;BME280;26708;50.304;19.028;2023-06-26T06:33:49;98320.75;;;21.61;46.68
40982;BME280;26708;50.304;19.028;2023-06-26T06:35:54;98184.59;;;20.98;46.90
40982;BME280;26708;50.304;19.028;2023-06-26T06:37:58;98228.44;;;21.26;46.58
40982;BME280;26708;50.304;19.028;2023-06-26T06:40:05;98246.69;;;21.51;46.79
40982;BME280;26708;50.304;19.028;2023-06-26T06:42:10;98309.34;;;21.93;46.65
40982;BME280;26708;50.304;19.028;2023-06-26T06:44:18;98208.13;;;21.41;46.24
40982;BME280;26708;50.304;19.028;2023-06-26T06:46:24;98131.38;;;20.98;45.87
40982;BME280;26708;50.304;19.028;2023-06-26T06:48:31;98329.47;;;21.99;45.92
40982;BME280;26708;50.304;19.028;2023-06-26T06:50:44;98210.88;;;21.56;45.65
40982;BME280;26708;50.304;19.028;2023-06-26T06:52:53;98151.19;;;21.26;45.99
40982;BME280;26708;50.304;19.028;2023-06-26T06:54:59;98172.56;;;21.25;45.72
40982;BME280;26708;50.304;19.028;2023-06-26T06:57:06;98353.28;;;22.36;45.80
40982;BME280;26708;50.304;19.028;2023-06-26T06:59:13;98367.84;;;22.63;45.38
40982;BME280;26708;50.304;19.028;2023-06-26T07:01:21;98177.56;;;21.65;44.95
40982;BME280;26708;50.304;19.028;2023-06-26T07:03:29;98386.66;;;22.77;44.86
40982;BME280;26708;50.304;19.028;2023-06-26T07:05:35;97985.72;;;20.67;44.65
40982;BME280;26708;50.304;19.028;2023-06-26T07:07:40;98133.34;;;21.61;44.68
40982;BME280;26708;50.304;19.028;2023-06-26T07:09:45;98157.72;;;21.70;44.59
40982;BME280;26708;50.304;19.028;2023-06-26T07:11:54;98021.72;;;20.91;44.93
40982;BME280;26708;50.304;19.028;2023-06-26T07:14:00;98058.00;;;21.09;44.55
40982;BME280;26708;50.304;19.028;2023-06-26T07:19:22;98275.38;;;22.62;44.54
40982;BME280;26708;50.304;19.028;2023-06-26T07:21:28;98168.72;;;21.97;44.05
40982;BME280;26708;50.304;19.028;2023-06-26T07:24:11;98210.13;;;22.19;44.43
40982;BME280;26708;50.304;19.028;2023-06-26T07:35:33;98190.59;;;22.19;42.27
40982;BME280;26708;50.304;19.028;2023-06-26T07:37:39;98248.72;;;22.45;42.68
40982;BME280;26708;50.304;19.028;2023-06-26T07:39:45;98352.59;;;23.13;43.39
40982;BME280;26708;50.304;19.028;2023-06-26T07:42:02;98122.78;;;21.59;43.31
40982;BME280;26708;50.304;19.028;2023-06-26T07:44:10;98199.47;;;22.19;43.23
40982;BME280;26708;50.304;19.028;2023-06-26T07:46:51;97966.88;;;20.72;43.10
40982;BME280;26708;50.304;19.028;2023-06-26T07:49:48;98163.06;;;22.18;43.51
40982;BME280;26708;50.304;19.028;2023-06-26T07:52:00;98256.69;;;22.62;43.57
40982;BME280;26708;50.304;19.028;2023-06-26T07:56:54;98007.31;;;21.28;43.44
40982;BME280;26708;50.304;19.028;2023-06-26T08:01:48;98155.59;;;22.25;41.20
40982;BME280;26708;50.304;19.028;2023-06-26T08:04:03;98172.72;;;22.36;41.52
40982;BME280;26708;50.304;19.028;2023-06-26T08:06:33;98343.16;;;23.52;40.58
40982;BME280;26708;50.304;19.028;2023-06-26T08:08:44;98304.69;;;23.25;41.07
40982;BME280;26708;50.304;19.028;2023-06-26T08:10:49;98129.72;;;22.27;39.30
40982;BME280;26708;50.304;19.028;2023-06-26T08:13:03;98254.34;;;23.02;38.89
40982;BME280;26708;50.304;19.028;2023-06-26T08:15:08;98110.41;;;22.22;38.77
40982;BME280;26708;50.304;19.028;2023-06-26T08:17:15;98143.19;;;22.55;38.86
40982;BME280;26708;50.304;19.028;2023-06-26T08:19:24;98260.91;;;23.28;38.82
40982;BME280;26708;50.304;19.028;2023-06-26T08:21:44;98030.72;;;21.85;39.60
40982;BME280;26708;50.304;19.028;2023-06-26T08:24:01;98074.25;;;22.32;38.66
40982;BME280;26708;50.304;19.028;2023-06-26T08:26:29;98301.34;;;23.81;38.93
40982;BME280;26708;50.304;19.028;2023-06-26T08:28:40;98147.00;;;22.96;39.42
40982;BME280;26708;50.304;19.028;2023-06-26T08:30:45;98172.44;;;23.32;38.20
40982;BME280;26708;50.304;19.028;2023-06-26T08:32:54;98015.22;;;22.38;37.78
40982;BME280;26708;50.304;19.028;2023-06-26T08:35:00;98190.81;;;23.52;37.52
40982;BME280;26708;50.304;19.028;2023-06-26T08:37:05;98234.69;;;23.78;37.28
40982;BME280;26708;50.304;19.028;2023-06-26T08:39:15;98334.78;;;24.47;37.54
40982;BME280;26708;50.304;19.028;2023-06-26T08:41:20;98385.56;;;24.48;37.78
40982;BME280;26708;50.304;19.028;2023-06-26T08:43:26;98346.59;;;24.43;37.45
40982;BME280;26708;50.304;19.028;2023-06-26T08:45:32;98219.25;;;23.53;37.88
40982;BME280;26708;50.304;19.028;2023-06-26T08:47:37;98349.75;;;24.35;38.16
40982;BME280;26708;50.304;19.028;2023-06-26T08:49:51;98032.41;;;22.48;38.08
40982;BME280;26708;50.304;19.028;2023-06-26T08:52:13;98194.50;;;23.50;36.88
40982;BME280;26708;50.304;19.028;2023-06-26T08:54:28;98160.88;;;23.32;37.37
40982;BME280;26708;50.304;19.028;2023-06-26T08:56:44;98211.72;;;23.46;37.10
40982;BME280;26708;50.304;19.028;2023-06-26T08:59:00;98098.84;;;22.97;36.90
40982;BME280;26708;50.304;19.028;2023-06-26T09:01:17;98340.56;;;24.39;36.04
40982;BME280;26708;50.304;19.028;2023-06-26T09:03:23;98281.38;;;24.16;36.23
40982;BME280;26708;50.304;19.028;2023-06-26T09:05:30;98218.19;;;23.85;35.21
40982;BME280;26708;50.304;19.028;2023-06-26T09:07:36;98226.88;;;23.89;34.93
40982;BME280;26708;50.304;19.028;2023-06-26T09:09:44;98167.22;;;23.45;34.62
40982;BME280;26708;50.304;19.028;2023-06-26T09:11:50;98151.19;;;23.45;34.63
40982;BME280;26708;50.304;19.028;2023-06-26T09:14:02;98166.28;;;23.60;34.57
40982;BME280;26708;50.304;19.028;2023-06-26T09:16:10;98221.13;;;23.67;34.20
40982;BME280;26708;50.304;19.028;2023-06-26T09:20:59;98073.94;;;22.83;35.72
40982;BME280;26708;50.304;19.028;2023-06-26T09:23:04;98245.19;;;23.81;35.41
40982;BME280;26708;50.304;19.028;2023-06-26T09:25:17;98230.75;;;23.69;34.91
40982;BME280;26708;50.304;19.028;2023-06-26T09:27:25;98154.88;;;23.28;35.28
40982;BME280;26708;50.304;19.028;2023-06-26T09:29:32;98125.84;;;23.22;35.47
40982;BME280;26708;50.304;19.028;2023-06-26T09:31:46;97954.63;;;22.10;36.21
40982;BME280;26708;50.304;19.028;2023-06-26T09:33:57;98076.81;;;22.94;36.37
40982;BME280;26708;50.304;19.028;2023-06-26T09:36:05;98151.66;;;23.51;36.75
40982;BME280;26708;50.304;19.028;2023-06-26T09:38:19;98160.66;;;23.64;37.07
40982;BME280;26708;50.304;19.028;2023-06-26T09:41:20;98260.66;;;24.33;36.11
40982;BME280;26708;50.304;19.028;2023-06-26T09:46:55;98243.94;;;24.16;35.65
40982;BME280;26708;50.304;19.028;2023-06-26T09:56:41;98116.72;;;23.54;34.50
40982;BME280;26708;50.304;19.028;2023-06-26T09:58:47;98309.59;;;24.77;33.67
40982;BME280;26708;50.304;19.028;2023-06-26T10:00:58;98265.59;;;24.39;33.74
40982;BME280;26708;50.304;19.028;2023-06-26T10:05:39;98146.53;;;23.76;34.55
40982;BME280;26708;50.304;19.028;2023-06-26T10:07:52;98014.63;;;23.20;33.95
40982;BME280;26708;50.304;19.028;2023-06-26T10:10:11;97959.59;;;22.89;34.03
40982;BME280;26708;50.304;19.028;2023-06-26T10:12:27;98023.28;;;23.39;34.09
40982;BME280;26708;50.304;19.028;2023-06-26T10:14:37;97937.59;;;23.00;33.90
40982;BME280;26708;50.304;19.028;2023-06-26T10:16:50;98147.47;;;24.31;33.92
40982;BME280;26708;50.304;19.028;2023-06-26T10:19:02;97937.16;;;23.20;33.58
40982;BME280;26708;50.304;19.028;2023-06-26T10:21:13;98138.00;;;24.26;33.90
40982;BME280;26708;50.304;19.028;2023-06-26T10:23:23;98017.72;;;23.56;33.76
40982;BME280;26708;50.304;19.028;2023-06-26T10:25:49;98155.69;;;24.56;33.40
40982;BME280;26708;50.304;19.028;2023-06-26T10:28:05;98293.66;;;25.42;33.76
40982;BME280;26708;50.304;19.028;2023-06-26T10:30:16;98088.53;;;24.19;32.94
40982;BME280;26708;50.304;19.028;2023-06-26T10:32:27;98273.84;;;25.45;33.13
40982;BME280;26708;50.304;19.028;2023-06-26T10:34:35;98252.06;;;25.11;32.62
40982;BME280;26708;50.304;19.028;2023-06-26T10:36:44;98258.59;;;25.07;33.38
40982;BME280;26708;50.304;19.028;2023-06-26T10:38:57;98299.50;;;25.23;33.43
40982;BME280;26708;50.304;19.028;2023-06-26T10:41:11;98215.91;;;24.90;33.44
40982;BME280;26708;50.304;19.028;2023-06-26T10:43:20;98175.72;;;24.63;33.92
40982;BME280;26708;50.304;19.028;2023-06-26T10:45:28;98127.88;;;24.31;34.34
40982;BME280;26708;50.304;19.028;2023-06-26T10:47:33;98171.75;;;24.56;34.44
40982;BME280;26708;50.304;19.028;2023-06-26T10:49:47;98080.13;;;24.11;34.56
40982;BME280;26708;50.304;19.028;2023-06-26T10:51:52;98171.63;;;24.58;34.39
40982;BME280;26708;50.304;19.028;2023-06-26T10:54:05;98023.63;;;23.75;34.68
40982;BME280;26708;50.304;19.028;2023-06-26T10:56:10;98240.72;;;25.19;33.46
40982;BME280;26708;50.304;19.028;2023-06-26T10:58:41;97964.34;;;23.54;33.62
40982;BME280;26708;50.304;19.028;2023-06-26T11:00:50;98058.59;;;24.26;32.99
40982;BME280;26708;50.304;19.028;2023-06-26T11:02:55;98152.00;;;24.71;33.59
40982;BME280;26708;50.304;19.028;2023-06-26T11:05:25;98091.59;;;24.53;34.07
40982;BME280;26708;50.304;19.028;2023-06-26T11:07:34;98129.25;;;24.64;33.20
40982;BME280;26708;50.304;19.028;2023-06-26T11:10:01;97886.59;;;23.45;32.69
40982;BME280;26708;50.304;19.028;2023-06-26T11:12:08;97959.34;;;23.76;32.93
40982;BME280;26708;50.304;19.028;2023-06-26T11:14:19;98129.09;;;24.80;33.42
40982;BME280;26708;50.304;19.028;2023-06-26T11:16:26;98219.22;;;25.33;33.32
40982;BME280;26708;50.304;19.028;2023-06-26T11:18:33;98202.16;;;25.34;33.36
40982;BME280;26708;50.304;19.028;2023-06-26T11:20:38;97908.09;;;23.70;33.48
40982;BME280;26708;50.304;19.028;2023-06-26T11:22:52;98222.91;;;25.57;33.41
40982;BME280;26708;50.304;19.028;2023-06-26T11:25:05;98250.91;;;25.80;31.74
40982;BME280;26708;50.304;19.028;2023-06-26T11:27:13;98254.22;;;25.83;32.07
40982;BME280;26708;50.304;19.028;2023-06-26T11:29:21;98254.84;;;25.87;31.10
40982;BME280;26708;50.304;19.028;2023-06-26T11:31:31;98094.75;;;24.99;31.81
40982;BME280;26708;50.304;19.028;2023-06-26T11:33:36;98243.59;;;25.94;31.96
40982;BME280;26708;50.304;19.028;2023-06-26T11:35:45;98104.16;;;24.92;31.21
40982;BME280;26708;50.304;19.028;2023-06-26T11:37:55;98176.56;;;25.55;31.18
40982;BME280;26708;50.304;19.028;2023-06-26T11:40:17;97947.97;;;24.13;31.44
40982;BME280;26708;50.304;19.028;2023-06-26T11:42:23;98137.50;;;25.39;31.57
40982;BME280;26708;50.304;19.028;2023-06-26T11:44:40;98107.16;;;25.26;31.69
40982;BME280;26708;50.304;19.028;2023-06-26T11:46:46;98243.59;;;26.07;31.38